createdAt,value
2022-11-16T00:14:00.513Z,58.011
2022-11-16T00:29:03.406Z,58.411
2022-11-16T00:44:05.999Z,57.63
2022-11-16T00:59:08.398Z,58.133
2022-11-16T01:14:10.707Z,58.751
2022-11-16T01:29:13.348Z,57.614
2022-11-16T01:44:15.678Z,57.81
2022-11-16T01:59:18.249Z,58.304
2022-11-16T02:14:20.735Z,58.312
2022-11-16T02:29:23.301Z,58.98
2022-11-16T02:44:25.895Z,59.198
2022-11-16T02:59:28.506Z,58.891
2022-11-16T03:14:31.413Z,58.466
2022-11-16T03:29:33.763Z,58.404
2022-11-16T03:44:36.155Z,58.044
2022-11-16T03:59:38.609Z,58.572
2022-11-16T04:14:41.102Z,58.3
2022-11-16T04:29:43.586Z,57.366
2022-11-16T04:44:46.406Z,58.112
2022-11-16T04:59:49.169Z,59.059
2022-11-16T05:14:51.694Z,58.915
2022-11-16T05:29:54.547Z,57.685
2022-11-16T05:44:57.851Z,58.379
2022-11-16T06:00:00.718Z,58.198
2022-11-16T06:15:04.341Z,57.744
2022-11-16T06:30:09.565Z,56.296
2022-11-16T06:45:13.927Z,57.334
2022-11-16T07:00:20.837Z,57.476
2022-11-16T07:15:24.829Z,58.448
2022-11-16T07:30:29.019Z,58.217
2022-11-16T07:45:34.237Z,57.374
2022-11-16T08:00:36.793Z,57.115
2022-11-16T08:15:39.211Z,58.856
2022-11-16T08:30:41.542Z,57.523
2022-11-16T08:45:44.258Z,58.81
2022-11-16T09:00:46.732Z,58.609
2022-11-16T09:15:49.279Z,59.968
2022-11-16T09:30:52.100Z,59.905
2022-11-16T09:45:55.034Z,59.109
2022-11-16T10:00:57.437Z,59.052
2022-11-16T10:15:59.864Z,58.012
2022-11-16T10:31:02.156Z,58.596
2022-11-16T10:46:04.438Z,58.775
2022-11-16T11:01:06.793Z,59.693
2022-11-16T11:16:09.387Z,58.205
2022-11-16T11:31:11.774Z,58.743
2022-11-16T11:46:14.095Z,58.176
2022-11-16T12:01:20.749Z,58.006
2022-11-16T12:16:26.163Z,59.571
2022-11-16T12:31:28.619Z,58.244
2022-11-16T12:46:31.047Z,58.53
2022-11-16T13:01:33.353Z,58.912
2022-11-16T13:16:35.728Z,58.887
2022-11-16T13:31:37.997Z,58.84
2022-11-16T13:46:55.252Z,59.07
2022-11-16T14:01:58.795Z,58.819
2022-11-16T14:17:01.735Z,58.739
2022-11-16T14:32:04.256Z,59.135
2022-11-16T14:47:07.164Z,58.945
2022-11-16T15:02:09.676Z,60.139
2022-11-16T15:17:11.934Z,59.783
2022-11-16T15:32:14.231Z,57.943
2022-11-16T15:47:16.588Z,58.609
2022-11-16T16:02:19.020Z,59.289
2022-11-16T16:17:21.333Z,57.882
2022-11-16T16:32:23.616Z,58.373
2022-11-16T16:47:26.150Z,58.285
2022-11-16T17:02:28.577Z,58.235
2022-11-16T17:17:31.426Z,58.444
2022-11-16T17:32:34.302Z,57.653
2022-11-16T17:47:37.051Z,57.384
2022-11-16T18:02:40.064Z,57.598
2022-11-16T18:17:42.540Z,58.464
2022-11-16T18:32:44.866Z,58.249
2022-11-16T18:47:47.491Z,58.723
2022-11-16T19:02:50.651Z,58.361
2022-11-16T19:18:14.692Z,59.064
2022-11-16T19:33:22.859Z,57.839
2022-11-16T19:48:25.199Z,58.432
2022-11-16T20:03:27.540Z,58.274
2022-11-16T20:18:29.971Z,57.587
2022-11-16T20:33:32.812Z,56.503
2022-11-16T20:48:35.329Z,57.063
2022-11-16T21:03:38.046Z,57.124
2022-11-16T21:18:41.165Z,57.177
2022-11-16T21:33:43.443Z,56.631
2022-11-16T21:48:45.830Z,55.895
2022-11-16T22:03:49.013Z,55.177
2022-11-16T22:18:51.447Z,55.694
2022-11-16T22:33:53.771Z,55.92
2022-11-16T22:48:56.141Z,55.506
2022-11-16T23:03:58.445Z,56.429
2022-11-16T23:19:00.819Z,56.093
2022-11-16T23:34:03.253Z,55.225
2022-11-16T23:49:05.632Z,55.829
